< < Back
Terminal Aerodrome Forecast


Current Version              Previous Versions:   1  2  3  4  5  6  7  8  9  

Terminal Aerodrome Forecast

671
FTUS42 KTAE 031138
TAFVLD
TAF
KVLD 031138Z 0312/0412 19004KT 1 1/2SM BR OVC002
      TEMPO 0312/0314 1/2SM FG VV002
     FM031500 21007KT P6SM BKN040
     FM032100 24008KT 5SM TSRA BKN035CB
     FM040500 00000KT P6SM -RA BKN040
     FM040600 19002KT P6SM OVC007=



Latest METAR

970
SAUS70 KWBC 032000 RRE
MTRVLD
METAR KVLD 031953Z VRB03KT 10SM CLR 31/19 A2984 RMK AO2 LTG DSNT E
SLP109 T03060194


USA.gov is the U.S. government's official web portal to all federal, state and local government web resources and services.